sensor_id;sensor_type;location;lat;lon;timestamp;temperature;humidity
64685;DHT22;51109;47.414;18.954;2023-02-03T00:00:47;2.50;99.90
64685;DHT22;51109;47.414;18.954;2023-02-03T00:03:13;2.40;99.90
64685;DHT22;51109;47.414;18.954;2023-02-03T00:05:39;2.40;99.90
64685;DHT22;51109;47.414;18.954;2023-02-03T00:08:06;2.50;99.90
64685;DHT22;51109;47.414;18.954;2023-02-03T00:10:34;2.40;99.90
64685;DHT22;51109;47.414;18.954;2023-02-03T00:13:01;2.40;99.90
64685;DHT22;51109;47.414;18.954;2023-02-03T00:15:27;2.40;99.90
64685;DHT22;51109;47.414;18.954;2023-02-03T00:17:53;2.40;99.90
64685;DHT22;51109;47.414;18.954;2023-02-03T00:20:19;2.40;99.90
64685;DHT22;51109;47.414;18.954;2023-02-03T00:22:45;2.40;99.90
64685;DHT22;51109;47.414;18.954;2023-02-03T00:25:11;2.40;99.90
64685;DHT22;51109;47.414;18.954;2023-02-03T00:27:36;2.40;99.90
64685;DHT22;51109;47.414;18.954;2023-02-03T00:30:03;2.30;99.90
64685;DHT22;51109;47.414;18.954;2023-02-03T00:32:29;2.30;99.90
64685;DHT22;51109;47.414;18.954;2023-02-03T00:34:55;2.30;99.90
64685;DHT22;51109;47.414;18.954;2023-02-03T00:37:21;2.20;99.90
64685;DHT22;51109;47.414;18.954;2023-02-03T00:39:48;2.30;99.90
64685;DHT22;51109;47.414;18.954;2023-02-03T00:42:14;2.20;99.90
64685;DHT22;51109;47.414;18.954;2023-02-03T00:44:41;2.20;99.90
64685;DHT22;51109;47.414;18.954;2023-02-03T00:47:07;2.20;99.90
64685;DHT22;51109;47.414;18.954;2023-02-03T00:49:33;2.20;99.90
64685;DHT22;51109;47.414;18.954;2023-02-03T00:51:59;2.20;99.90
64685;DHT22;51109;47.414;18.954;2023-02-03T00:54:25;2.20;99.90
64685;DHT22;51109;47.414;18.954;2023-02-03T00:56:50;2.10;99.90
64685;DHT22;51109;47.414;18.954;2023-02-03T00:59:16;2.10;99.90
64685;DHT22;51109;47.414;18.954;2023-02-03T01:01:42;2.10;99.90
64685;DHT22;51109;47.414;18.954;2023-02-03T01:04:08;2.10;99.90
64685;DHT22;51109;47.414;18.954;2023-02-03T01:06:34;2.10;99.90
64685;DHT22;51109;47.414;18.954;2023-02-03T01:09:03;2.10;99.90
64685;DHT22;51109;47.414;18.954;2023-02-03T01:11:29;2.10;99.90
64685;DHT22;51109;47.414;18.954;2023-02-03T01:13:56;2.00;99.90
64685;DHT22;51109;47.414;18.954;2023-02-03T01:16:24;2.00;99.90
64685;DHT22;51109;47.414;18.954;2023-02-03T01:18:50;2.00;99.90
64685;DHT22;51109;47.414;18.954;2023-02-03T01:21:19;1.90;99.90
64685;DHT22;51109;47.414;18.954;2023-02-03T01:23:46;1.90;99.90
64685;DHT22;51109;47.414;18.954;2023-02-03T01:26:15;1.90;99.90
64685;DHT22;51109;47.414;18.954;2023-02-03T01:28:41;1.90;99.90
64685;DHT22;51109;47.414;18.954;2023-02-03T01:31:15;1.90;99.90
64685;DHT22;51109;47.414;18.954;2023-02-03T01:33:42;1.80;99.90
64685;DHT22;51109;47.414;18.954;2023-02-03T01:36:10;1.80;99.90
64685;DHT22;51109;47.414;18.954;2023-02-03T01:38:37;1.80;99.90
64685;DHT22;51109;47.414;18.954;2023-02-03T01:41:05;1.80;99.90
64685;DHT22;51109;47.414;18.954;2023-02-03T01:43:40;1.80;99.90
64685;DHT22;51109;47.414;18.954;2023-02-03T01:46:27;1.80;99.90
64685;DHT22;51109;47.414;18.954;2023-02-03T01:49:08;1.80;99.90
64685;DHT22;51109;47.414;18.954;2023-02-03T01:51:38;1.80;99.90
64685;DHT22;51109;47.414;18.954;2023-02-03T01:54:07;1.70;99.90
64685;DHT22;51109;47.414;18.954;2023-02-03T01:56:35;1.70;99.90
64685;DHT22;51109;47.414;18.954;2023-02-03T01:59:04;1.60;99.90
64685;DHT22;51109;47.414;18.954;2023-02-03T02:01:55;1.60;99.90
64685;DHT22;51109;47.414;18.954;2023-02-03T02:04:26;1.60;99.90
64685;DHT22;51109;47.414;18.954;2023-02-03T02:06:56;1.50;99.90
64685;DHT22;51109;47.414;18.954;2023-02-03T02:09:24;1.40;99.90
64685;DHT22;51109;47.414;18.954;2023-02-03T02:11:50;1.40;99.90
64685;DHT22;51109;47.414;18.954;2023-02-03T02:14:17;1.40;99.90
64685;DHT22;51109;47.414;18.954;2023-02-03T02:16:56;1.30;99.90
64685;DHT22;51109;47.414;18.954;2023-02-03T02:38:24;1.20;99.90
64685;DHT22;51109;47.414;18.954;2023-02-03T02:41:09;1.20;99.90
64685;DHT22;51109;47.414;18.954;2023-02-03T02:46:34;1.20;99.90
64685;DHT22;51109;47.414;18.954;2023-02-03T02:51:52;1.10;99.90
64685;DHT22;51109;47.414;18.954;2023-02-03T02:54:22;1.10;99.90
64685;DHT22;51109;47.414;18.954;2023-02-03T02:56:53;1.10;99.90
64685;DHT22;51109;47.414;18.954;2023-02-03T02:59:20;1.20;99.90
64685;DHT22;51109;47.414;18.954;2023-02-03T03:01:46;1.20;99.90
64685;DHT22;51109;47.414;18.954;2023-02-03T03:04:16;1.10;99.90
64685;DHT22;51109;47.414;18.954;2023-02-03T03:06:47;1.10;99.90
64685;DHT22;51109;47.414;18.954;2023-02-03T03:09:22;1.10;99.90
64685;DHT22;51109;47.414;18.954;2023-02-03T03:11:54;1.10;99.90
64685;DHT22;51109;47.414;18.954;2023-02-03T03:14:24;1.10;99.90
64685;DHT22;51109;47.414;18.954;2023-02-03T03:16:59;1.10;99.90
64685;DHT22;51109;47.414;18.954;2023-02-03T03:19:40;1.00;99.90
64685;DHT22;51109;47.414;18.954;2023-02-03T03:22:10;1.00;99.90
64685;DHT22;51109;47.414;18.954;2023-02-03T03:24:48;1.00;99.90
64685;DHT22;51109;47.414;18.954;2023-02-03T03:27:23;1.00;99.90
64685;DHT22;51109;47.414;18.954;2023-02-03T03:29:53;0.90;99.90
64685;DHT22;51109;47.414;18.954;2023-02-03T03:32:20;0.90;99.90
64685;DHT22;51109;47.414;18.954;2023-02-03T03:34:46;0.90;99.90
64685;DHT22;51109;47.414;18.954;2023-02-03T03:40:08;0.80;99.90
64685;DHT22;51109;47.414;18.954;2023-02-03T03:42:44;0.70;99.90
64685;DHT22;51109;47.414;18.954;2023-02-03T03:45:31;0.70;99.90
64685;DHT22;51109;47.414;18.954;2023-02-03T03:54:07;0.70;99.90
64685;DHT22;51109;47.414;18.954;2023-02-03T03:56:59;0.80;99.90
64685;DHT22;51109;47.414;18.954;2023-02-03T03:59:28;0.70;99.90
64685;DHT22;51109;47.414;18.954;2023-02-03T04:01:56;0.70;99.90
64685;DHT22;51109;47.414;18.954;2023-02-03T04:04:24;0.60;99.90
64685;DHT22;51109;47.414;18.954;2023-02-03T04:06:54;0.70;99.90
64685;DHT22;51109;47.414;18.954;2023-02-03T04:09:20;0.60;99.90
64685;DHT22;51109;47.414;18.954;2023-02-03T04:11:46;0.60;99.90
64685;DHT22;51109;47.414;18.954;2023-02-03T04:14:29;0.40;99.90
64685;DHT22;51109;47.414;18.954;2023-02-03T04:16:55;0.50;99.90
64685;DHT22;51109;47.414;18.954;2023-02-03T04:19:22;0.50;99.90
64685;DHT22;51109;47.414;18.954;2023-02-03T04:21:47;0.40;99.90
64685;DHT22;51109;47.414;18.954;2023-02-03T04:24:13;0.60;99.90
64685;DHT22;51109;47.414;18.954;2023-02-03T04:26:39;0.60;99.90
64685;DHT22;51109;47.414;18.954;2023-02-03T04:29:05;0.70;99.90
64685;DHT22;51109;47.414;18.954;2023-02-03T04:31:31;0.70;99.90
64685;DHT22;51109;47.414;18.954;2023-02-03T04:33:57;0.70;99.90
64685;DHT22;51109;47.414;18.954;2023-02-03T04:36:23;0.70;99.90
64685;DHT22;51109;47.414;18.954;2023-02-03T04:38:49;0.70;99.90
64685;DHT22;51109;47.414;18.954;2023-02-03T04:41:15;0.70;99.90
64685;DHT22;51109;47.414;18.954;2023-02-03T04:43:41;0.70;99.90
64685;DHT22;51109;47.414;18.954;2023-02-03T04:46:07;0.80;99.90
64685;DHT22;51109;47.414;18.954;2023-02-03T04:48:35;0.90;99.90
64685;DHT22;51109;47.414;18.954;2023-02-03T04:51:02;0.90;99.90
64685;DHT22;51109;47.414;18.954;2023-02-03T04:53:29;1.00;99.90
64685;DHT22;51109;47.414;18.954;2023-02-03T04:55:55;1.00;99.90
64685;DHT22;51109;47.414;18.954;2023-02-03T04:58:21;1.00;99.90
64685;DHT22;51109;47.414;18.954;2023-02-03T05:00:48;1.00;99.90
64685;DHT22;51109;47.414;18.954;2023-02-03T05:03:14;1.00;99.90
64685;DHT22;51109;47.414;18.954;2023-02-03T05:05:40;1.10;99.90
64685;DHT22;51109;47.414;18.954;2023-02-03T05:08:06;1.10;99.90
64685;DHT22;51109;47.414;18.954;2023-02-03T05:10:32;1.10;99.90
64685;DHT22;51109;47.414;18.954;2023-02-03T05:12:58;1.00;99.90
64685;DHT22;51109;47.414;18.954;2023-02-03T05:15:23;1.00;99.90
64685;DHT22;51109;47.414;18.954;2023-02-03T05:17:53;0.90;99.90
64685;DHT22;51109;47.414;18.954;2023-02-03T05:20:19;1.00;99.90
64685;DHT22;51109;47.414;18.954;2023-02-03T05:22:46;1.00;99.90
64685;DHT22;51109;47.414;18.954;2023-02-03T05:25:12;1.10;99.90
64685;DHT22;51109;47.414;18.954;2023-02-03T05:27:38;1.10;99.90
64685;DHT22;51109;47.414;18.954;2023-02-03T05:30:05;1.20;99.90
64685;DHT22;51109;47.414;18.954;2023-02-03T05:32:32;1.20;99.90
64685;DHT22;51109;47.414;18.954;2023-02-03T05:34:57;1.20;99.90
64685;DHT22;51109;47.414;18.954;2023-02-03T05:37:23;1.30;99.90
64685;DHT22;51109;47.414;18.954;2023-02-03T05:39:49;1.30;99.90
64685;DHT22;51109;47.414;18.954;2023-02-03T05:42:15;1.30;99.90
64685;DHT22;51109;47.414;18.954;2023-02-03T05:44:41;1.30;99.90
64685;DHT22;51109;47.414;18.954;2023-02-03T05:47:07;1.30;99.90
64685;DHT22;51109;47.414;18.954;2023-02-03T05:49:33;1.30;99.90
64685;DHT22;51109;47.414;18.954;2023-02-03T05:51:59;1.20;99.90
64685;DHT22;51109;47.414;18.954;2023-02-03T05:54:25;1.20;99.90
64685;DHT22;51109;47.414;18.954;2023-02-03T05:56:51;1.20;99.90
64685;DHT22;51109;47.414;18.954;2023-02-03T05:59:17;1.20;99.90
64685;DHT22;51109;47.414;18.954;2023-02-03T06:01:43;1.20;99.90
64685;DHT22;51109;47.414;18.954;2023-02-03T06:04:09;1.20;99.90
64685;DHT22;51109;47.414;18.954;2023-02-03T06:06:35;1.20;99.90
64685;DHT22;51109;47.414;18.954;2023-02-03T06:09:10;1.20;99.90
64685;DHT22;51109;47.414;18.954;2023-02-03T06:11:36;1.20;99.90
64685;DHT22;51109;47.414;18.954;2023-02-03T06:14:02;1.20;99.90
64685;DHT22;51109;47.414;18.954;2023-02-03T06:16:28;1.20;99.90
64685;DHT22;51109;47.414;18.954;2023-02-03T06:18:55;1.30;99.90
64685;DHT22;51109;47.414;18.954;2023-02-03T06:21:26;1.20;99.90
64685;DHT22;51109;47.414;18.954;2023-02-03T06:23:52;1.20;99.90
64685;DHT22;51109;47.414;18.954;2023-02-03T06:26:19;1.20;99.90
64685;DHT22;51109;47.414;18.954;2023-02-03T06:28:45;1.20;99.90
64685;DHT22;51109;47.414;18.954;2023-02-03T06:31:11;1.20;99.90
64685;DHT22;51109;47.414;18.954;2023-02-03T06:33:37;1.30;99.90
64685;DHT22;51109;47.414;18.954;2023-02-03T06:36:03;1.20;99.90
64685;DHT22;51109;47.414;18.954;2023-02-03T06:38:29;1.20;99.90
64685;DHT22;51109;47.414;18.954;2023-02-03T06:40:55;1.20;99.90
64685;DHT22;51109;47.414;18.954;2023-02-03T06:43:21;1.20;99.90
64685;DHT22;51109;47.414;18.954;2023-02-03T06:45:47;1.20;99.90
64685;DHT22;51109;47.414;18.954;2023-02-03T06:48:13;1.20;99.90
64685;DHT22;51109;47.414;18.954;2023-02-03T06:50:39;1.20;99.90
64685;DHT22;51109;47.414;18.954;2023-02-03T06:53:06;1.20;99.90
64685;DHT22;51109;47.414;18.954;2023-02-03T06:55:32;1.20;99.90
64685;DHT22;51109;47.414;18.954;2023-02-03T06:57:58;1.30;99.90
64685;DHT22;51109;47.414;18.954;2023-02-03T07:00:24;1.30;99.90
64685;DHT22;51109;47.414;18.954;2023-02-03T07:02:54;1.30;99.90
64685;DHT22;51109;47.414;18.954;2023-02-03T07:05:22;1.30;99.90
64685;DHT22;51109;47.414;18.954;2023-02-03T07:07:49;1.40;99.90
64685;DHT22;51109;47.414;18.954;2023-02-03T07:10:15;1.40;99.90
64685;DHT22;51109;47.414;18.954;2023-02-03T07:12:41;1.40;99.90
64685;DHT22;51109;47.414;18.954;2023-02-03T07:15:07;1.40;99.90
64685;DHT22;51109;47.414;18.954;2023-02-03T07:17:33;1.50;99.90
64685;DHT22;51109;47.414;18.954;2023-02-03T07:19:59;1.50;99.90
64685;DHT22;51109;47.414;18.954;2023-02-03T07:22:25;1.50;99.90
64685;DHT22;51109;47.414;18.954;2023-02-03T07:24:51;1.50;99.90
64685;DHT22;51109;47.414;18.954;2023-02-03T07:27:17;1.50;99.90
64685;DHT22;51109;47.414;18.954;2023-02-03T07:29:44;1.50;99.90
64685;DHT22;51109;47.414;18.954;2023-02-03T07:32:10;1.60;99.90
64685;DHT22;51109;47.414;18.954;2023-02-03T07:34:36;1.60;99.90
64685;DHT22;51109;47.414;18.954;2023-02-03T07:37:02;1.50;99.90
64685;DHT22;51109;47.414;18.954;2023-02-03T07:39:28;1.50;99.90
64685;DHT22;51109;47.414;18.954;2023-02-03T07:41:54;1.60;99.90
64685;DHT22;51109;47.414;18.954;2023-02-03T07:44:19;1.60;99.90
64685;DHT22;51109;47.414;18.954;2023-02-03T07:46:45;1.60;99.90
64685;DHT22;51109;47.414;18.954;2023-02-03T07:49:12;1.60;99.90
64685;DHT22;51109;47.414;18.954;2023-02-03T07:51:38;1.60;99.90
64685;DHT22;51109;47.414;18.954;2023-02-03T07:54:04;1.60;99.90
64685;DHT22;51109;47.414;18.954;2023-02-03T07:56:30;1.60;99.90
64685;DHT22;51109;47.414;18.954;2023-02-03T07:58:58;1.70;99.90
64685;DHT22;51109;47.414;18.954;2023-02-03T08:01:25;1.70;99.90
64685;DHT22;51109;47.414;18.954;2023-02-03T08:03:51;1.70;99.90
64685;DHT22;51109;47.414;18.954;2023-02-03T08:06:16;1.70;99.90
64685;DHT22;51109;47.414;18.954;2023-02-03T08:08:43;1.70;99.90
64685;DHT22;51109;47.414;18.954;2023-02-03T08:11:09;1.70;99.90
64685;DHT22;51109;47.414;18.954;2023-02-03T08:13:35;1.80;99.90
64685;DHT22;51109;47.414;18.954;2023-02-03T08:16:01;1.80;99.90
64685;DHT22;51109;47.414;18.954;2023-02-03T08:18:27;1.80;99.90
64685;DHT22;51109;47.414;18.954;2023-02-03T08:20:53;1.80;99.90
64685;DHT22;51109;47.414;18.954;2023-02-03T08:23:19;1.80;99.90
64685;DHT22;51109;47.414;18.954;2023-02-03T08:25:50;1.80;99.90
64685;DHT22;51109;47.414;18.954;2023-02-03T08:28:16;1.80;99.90
64685;DHT22;51109;47.414;18.954;2023-02-03T08:30:42;1.80;99.90
64685;DHT22;51109;47.414;18.954;2023-02-03T08:33:08;1.80;99.90
64685;DHT22;51109;47.414;18.954;2023-02-03T08:35:34;1.80;99.90
64685;DHT22;51109;47.414;18.954;2023-02-03T08:38:00;1.80;99.90
64685;DHT22;51109;47.414;18.954;2023-02-03T08:40:26;1.80;99.90
64685;DHT22;51109;47.414;18.954;2023-02-03T08:42:52;1.80;99.90
64685;DHT22;51109;47.414;18.954;2023-02-03T08:45:18;1.90;99.90
64685;DHT22;51109;47.414;18.954;2023-02-03T08:47:44;1.80;99.90
64685;DHT22;51109;47.414;18.954;2023-02-03T08:50:10;1.80;99.90
64685;DHT22;51109;47.414;18.954;2023-02-03T08:52:36;1.90;99.90
64685;DHT22;51109;47.414;18.954;2023-02-03T08:55:02;1.80;99.90
64685;DHT22;51109;47.414;18.954;2023-02-03T08:57:33;1.80;99.90
64685;DHT22;51109;47.414;18.954;2023-02-03T09:00:00;1.80;99.90
64685;DHT22;51109;47.414;18.954;2023-02-03T09:02:26;1.80;99.90
64685;DHT22;51109;47.414;18.954;2023-02-03T09:04:52;1.90;99.90
64685;DHT22;51109;47.414;18.954;2023-02-03T09:07:18;1.90;99.90
64685;DHT22;51109;47.414;18.954;2023-02-03T09:09:44;1.90;99.90
64685;DHT22;51109;47.414;18.954;2023-02-03T09:12:10;1.80;99.90
64685;DHT22;51109;47.414;18.954;2023-02-03T09:14:37;1.70;99.90
64685;DHT22;51109;47.414;18.954;2023-02-03T09:17:04;1.60;99.90
64685;DHT22;51109;47.414;18.954;2023-02-03T09:19:30;1.60;99.90
64685;DHT22;51109;47.414;18.954;2023-02-03T09:21:56;1.50;99.90
64685;DHT22;51109;47.414;18.954;2023-02-03T09:24:23;1.50;99.90
64685;DHT22;51109;47.414;18.954;2023-02-03T09:26:49;1.50;99.90
64685;DHT22;51109;47.414;18.954;2023-02-03T09:29:15;1.50;99.90
64685;DHT22;51109;47.414;18.954;2023-02-03T09:31:41;1.50;99.90
64685;DHT22;51109;47.414;18.954;2023-02-03T09:34:09;1.40;99.90
64685;DHT22;51109;47.414;18.954;2023-02-03T09:36:35;1.40;99.90
64685;DHT22;51109;47.414;18.954;2023-02-03T09:39:02;1.40;99.90
64685;DHT22;51109;47.414;18.954;2023-02-03T09:46:58;1.40;99.90
64685;DHT22;51109;47.414;18.954;2023-02-03T09:49:46;1.40;99.90
64685;DHT22;51109;47.414;18.954;2023-02-03T09:52:20;1.40;99.90
64685;DHT22;51109;47.414;18.954;2023-02-03T09:57:27;1.40;99.90
64685;DHT22;51109;47.414;18.954;2023-02-03T09:59:58;1.40;99.90
64685;DHT22;51109;47.414;18.954;2023-02-03T10:19:24;1.60;99.90
64685;DHT22;51109;47.414;18.954;2023-02-03T10:21:54;1.60;99.90
64685;DHT22;51109;47.414;18.954;2023-02-03T10:24:27;1.50;99.90
64685;DHT22;51109;47.414;18.954;2023-02-03T10:26:58;1.60;99.90
64685;DHT22;51109;47.414;18.954;2023-02-03T10:29:36;1.60;99.90
64685;DHT22;51109;47.414;18.954;2023-02-03T10:32:11;1.60;99.90
64685;DHT22;51109;47.414;18.954;2023-02-03T10:34:38;1.60;99.90
64685;DHT22;51109;47.414;18.954;2023-02-03T10:37:16;1.50;99.90
64685;DHT22;51109;47.414;18.954;2023-02-03T10:39:46;1.50;99.90
64685;DHT22;51109;47.414;18.954;2023-02-03T10:42:13;1.50;99.90
64685;DHT22;51109;47.414;18.954;2023-02-03T10:44:55;1.50;99.90
64685;DHT22;51109;47.414;18.954;2023-02-03T10:47:33;1.50;99.90
64685;DHT22;51109;47.414;18.954;2023-02-03T10:50:04;1.40;99.90
64685;DHT22;51109;47.414;18.954;2023-02-03T10:52:34;1.40;99.90
64685;DHT22;51109;47.414;18.954;2023-02-03T10:57:49;1.30;99.90
64685;DHT22;51109;47.414;18.954;2023-02-03T11:00:27;1.40;99.90
64685;DHT22;51109;47.414;18.954;2023-02-03T11:05:30;1.30;99.90
64685;DHT22;51109;47.414;18.954;2023-02-03T11:07:56;1.30;99.90
64685;DHT22;51109;47.414;18.954;2023-02-03T11:10:36;1.30;99.90
64685;DHT22;51109;47.414;18.954;2023-02-03T11:13:15;1.30;99.90
64685;DHT22;51109;47.414;18.954;2023-02-03T11:16:05;1.30;99.90
64685;DHT22;51109;47.414;18.954;2023-02-03T11:18:50;1.30;99.90
64685;DHT22;51109;47.414;18.954;2023-02-03T11:24:24;1.30;99.90
64685;DHT22;51109;47.414;18.954;2023-02-03T11:26:53;1.30;99.90
64685;DHT22;51109;47.414;18.954;2023-02-03T11:29:31;1.20;99.90
64685;DHT22;51109;47.414;18.954;2023-02-03T11:32:34;1.20;99.90
64685;DHT22;51109;47.414;18.954;2023-02-03T11:35:27;1.20;99.90
64685;DHT22;51109;47.414;18.954;2023-02-03T11:37:57;1.20;99.90
64685;DHT22;51109;47.414;18.954;2023-02-03T11:45:39;1.20;99.90
64685;DHT22;51109;47.414;18.954;2023-02-03T12:01:50;1.20;99.90
64685;DHT22;51109;47.414;18.954;2023-02-03T12:10:25;1.20;99.90
64685;DHT22;51109;47.414;18.954;2023-02-03T12:13:09;1.20;99.90
64685;DHT22;51109;47.414;18.954;2023-02-03T12:18:20;1.30;99.90
64685;DHT22;51109;47.414;18.954;2023-02-03T12:28:54;1.30;99.90
64685;DHT22;51109;47.414;18.954;2023-02-03T12:37:05;1.30;99.90
64685;DHT22;51109;47.414;18.954;2023-02-03T12:42:06;1.30;99.90
64685;DHT22;51109;47.414;18.954;2023-02-03T12:44:59;1.30;99.90
64685;DHT22;51109;47.414;18.954;2023-02-03T12:47:41;1.30;99.90
64685;DHT22;51109;47.414;18.954;2023-02-03T12:53:05;1.30;99.90
64685;DHT22;51109;47.414;18.954;2023-02-03T12:55:51;1.30;99.90
64685;DHT22;51109;47.414;18.954;2023-02-03T12:58:21;1.30;99.90
64685;DHT22;51109;47.414;18.954;2023-02-03T13:00:58;1.30;99.90
64685;DHT22;51109;47.414;18.954;2023-02-03T13:03:39;1.30;99.90
64685;DHT22;51109;47.414;18.954;2023-02-03T13:06:11;1.30;99.90
64685;DHT22;51109;47.414;18.954;2023-02-03T13:08:48;1.30;99.90
64685;DHT22;51109;47.414;18.954;2023-02-03T13:11:28;1.30;99.90
64685;DHT22;51109;47.414;18.954;2023-02-03T13:14:02;1.30;99.90
64685;DHT22;51109;47.414;18.954;2023-02-03T13:16:37;1.30;99.90
64685;DHT22;51109;47.414;18.954;2023-02-03T13:19:14;1.30;99.90
64685;DHT22;51109;47.414;18.954;2023-02-03T13:21:43;1.30;99.90
64685;DHT22;51109;47.414;18.954;2023-02-03T13:24:11;1.40;99.90
64685;DHT22;51109;47.414;18.954;2023-02-03T13:29:37;1.40;99.90
64685;DHT22;51109;47.414;18.954;2023-02-03T13:32:23;1.40;99.90
64685;DHT22;51109;47.414;18.954;2023-02-03T13:42:36;1.50;99.90
64685;DHT22;51109;47.414;18.954;2023-02-03T13:45:39;1.50;99.90
64685;DHT22;51109;47.414;18.954;2023-02-03T13:50:41;1.50;99.90
64685;DHT22;51109;47.414;18.954;2023-02-03T13:53:23;1.60;99.90
64685;DHT22;51109;47.414;18.954;2023-02-03T13:56:02;1.60;99.90
64685;DHT22;51109;47.414;18.954;2023-02-03T13:58:34;1.60;99.90
64685;DHT22;51109;47.414;18.954;2023-02-03T14:03:48;1.60;99.90
64685;DHT22;51109;47.414;18.954;2023-02-03T14:11:51;1.70;99.90
64685;DHT22;51109;47.414;18.954;2023-02-03T14:17:02;1.70;99.90
64685;DHT22;51109;47.414;18.954;2023-02-03T14:22:00;1.70;99.90
64685;DHT22;51109;47.414;18.954;2023-02-03T14:24:42;1.70;99.90
64685;DHT22;51109;47.414;18.954;2023-02-03T14:27:20;1.70;99.90
64685;DHT22;51109;47.414;18.954;2023-02-03T14:30:07;1.80;99.90
64685;DHT22;51109;47.414;18.954;2023-02-03T14:33:03;1.80;99.90
64685;DHT22;51109;47.414;18.954;2023-02-03T14:35:32;1.70;99.90
64685;DHT22;51109;47.414;18.954;2023-02-03T14:38:10;1.70;99.90
64685;DHT22;51109;47.414;18.954;2023-02-03T14:41:01;1.70;99.90
64685;DHT22;51109;47.414;18.954;2023-02-03T14:43:49;1.70;99.90
64685;DHT22;51109;47.414;18.954;2023-02-03T14:47:00;1.70;99.90
64685;DHT22;51109;47.414;18.954;2023-02-03T14:49:25;1.80;99.90
64685;DHT22;51109;47.414;18.954;2023-02-03T14:54:46;1.80;99.90
64685;DHT22;51109;47.414;18.954;2023-02-03T14:57:45;1.80;99.90
64685;DHT22;51109;47.414;18.954;2023-02-03T15:10:58;1.80;99.90
64685;DHT22;51109;47.414;18.954;2023-02-03T15:13:25;1.80;99.90
64685;DHT22;51109;47.414;18.954;2023-02-03T15:15:54;1.80;99.90
64685;DHT22;51109;47.414;18.954;2023-02-03T15:18:29;1.90;99.90
64685;DHT22;51109;47.414;18.954;2023-02-03T15:20:56;2.00;99.90
64685;DHT22;51109;47.414;18.954;2023-02-03T15:23:28;2.00;99.90
64685;DHT22;51109;47.414;18.954;2023-02-03T15:26:02;2.00;99.90
64685;DHT22;51109;47.414;18.954;2023-02-03T15:28:34;2.00;99.90
64685;DHT22;51109;47.414;18.954;2023-02-03T15:33:31;2.00;99.90
64685;DHT22;51109;47.414;18.954;2023-02-03T15:36:02;2.00;99.90
64685;DHT22;51109;47.414;18.954;2023-02-03T15:38:43;2.00;99.90
64685;DHT22;51109;47.414;18.954;2023-02-03T15:41:23;2.00;99.90
64685;DHT22;51109;47.414;18.954;2023-02-03T15:43:55;2.00;99.90
64685;DHT22;51109;47.414;18.954;2023-02-03T15:46:28;2.10;99.90
64685;DHT22;51109;47.414;18.954;2023-02-03T15:49:19;2.10;99.90
64685;DHT22;51109;47.414;18.954;2023-02-03T15:51:50;2.00;99.90
64685;DHT22;51109;47.414;18.954;2023-02-03T15:54:29;2.00;99.90
64685;DHT22;51109;47.414;18.954;2023-02-03T15:57:02;2.10;99.90
64685;DHT22;51109;47.414;18.954;2023-02-03T15:59:41;2.10;99.90
64685;DHT22;51109;47.414;18.954;2023-02-03T16:02:29;2.10;99.90
64685;DHT22;51109;47.414;18.954;2023-02-03T16:04:56;2.20;99.90
64685;DHT22;51109;47.414;18.954;2023-02-03T16:07:25;2.20;99.90
64685;DHT22;51109;47.414;18.954;2023-02-03T16:09:54;2.30;99.90
64685;DHT22;51109;47.414;18.954;2023-02-03T16:12:29;2.30;99.90
64685;DHT22;51109;47.414;18.954;2023-02-03T16:14:58;2.40;99.90
64685;DHT22;51109;47.414;18.954;2023-02-03T16:22:42;2.50;99.90
64685;DHT22;51109;47.414;18.954;2023-02-03T16:25:25;2.50;99.90
64685;DHT22;51109;47.414;18.954;2023-02-03T16:28:12;2.60;99.90
64685;DHT22;51109;47.414;18.954;2023-02-03T16:31:11;2.70;99.90
64685;DHT22;51109;47.414;18.954;2023-02-03T16:33:56;2.70;99.90
64685;DHT22;51109;47.414;18.954;2023-02-03T16:36:43;2.80;99.90
64685;DHT22;51109;47.414;18.954;2023-02-03T16:39:27;2.80;99.90
64685;DHT22;51109;47.414;18.954;2023-02-03T16:42:18;2.80;99.90
64685;DHT22;51109;47.414;18.954;2023-02-03T16:45:16;2.90;99.90
64685;DHT22;51109;47.414;18.954;2023-02-03T16:48:02;3.00;99.90
64685;DHT22;51109;47.414;18.954;2023-02-03T16:50:46;3.00;99.90
64685;DHT22;51109;47.414;18.954;2023-02-03T16:53:20;3.00;99.90
64685;DHT22;51109;47.414;18.954;2023-02-03T16:55:47;3.00;99.90
64685;DHT22;51109;47.414;18.954;2023-02-03T16:58:13;3.00;99.90
64685;DHT22;51109;47.414;18.954;2023-02-03T17:00:40;3.00;99.90
64685;DHT22;51109;47.414;18.954;2023-02-03T17:03:08;3.00;99.90
64685;DHT22;51109;47.414;18.954;2023-02-03T17:05:39;3.00;99.90
64685;DHT22;51109;47.414;18.954;2023-02-03T17:08:05;3.10;99.90
64685;DHT22;51109;47.414;18.954;2023-02-03T17:10:36;3.00;99.90
64685;DHT22;51109;47.414;18.954;2023-02-03T17:13:03;3.00;99.90
64685;DHT22;51109;47.414;18.954;2023-02-03T17:15:29;3.00;99.90
64685;DHT22;51109;47.414;18.954;2023-02-03T17:17:57;3.10;99.90
64685;DHT22;51109;47.414;18.954;2023-02-03T17:20:23;3.10;99.90
64685;DHT22;51109;47.414;18.954;2023-02-03T17:22:49;3.10;99.90
64685;DHT22;51109;47.414;18.954;2023-02-03T17:25:19;3.00;99.90
64685;DHT22;51109;47.414;18.954;2023-02-03T17:27:46;3.10;99.90
64685;DHT22;51109;47.414;18.954;2023-02-03T17:30:13;3.10;99.90
64685;DHT22;51109;47.414;18.954;2023-02-03T17:32:39;3.10;99.90
64685;DHT22;51109;47.414;18.954;2023-02-03T17:35:05;3.20;99.90
64685;DHT22;51109;47.414;18.954;2023-02-03T17:37:32;3.20;99.90
64685;DHT22;51109;47.414;18.954;2023-02-03T17:39:59;3.20;99.90
64685;DHT22;51109;47.414;18.954;2023-02-03T17:42:25;3.20;99.90
64685;DHT22;51109;47.414;18.954;2023-02-03T17:44:51;3.30;99.90
64685;DHT22;51109;47.414;18.954;2023-02-03T17:47:18;3.30;99.90
64685;DHT22;51109;47.414;18.954;2023-02-03T17:49:45;3.30;99.90
64685;DHT22;51109;47.414;18.954;2023-02-03T17:52:12;3.30;99.90
64685;DHT22;51109;47.414;18.954;2023-02-03T17:54:38;3.30;99.90
64685;DHT22;51109;47.414;18.954;2023-02-03T17:57:05;3.30;99.90
64685;DHT22;51109;47.414;18.954;2023-02-03T17:59:31;3.30;99.90
64685;DHT22;51109;47.414;18.954;2023-02-03T18:01:59;3.40;99.90
64685;DHT22;51109;47.414;18.954;2023-02-03T18:04:26;3.40;99.90
64685;DHT22;51109;47.414;18.954;2023-02-03T18:06:51;3.40;99.90
64685;DHT22;51109;47.414;18.954;2023-02-03T18:09:19;3.50;99.90
64685;DHT22;51109;47.414;18.954;2023-02-03T18:11:45;3.50;99.90
64685;DHT22;51109;47.414;18.954;2023-02-03T18:14:13;3.50;99.90
64685;DHT22;51109;47.414;18.954;2023-02-03T18:16:39;3.50;99.90
64685;DHT22;51109;47.414;18.954;2023-02-03T18:19:07;3.50;99.90
64685;DHT22;51109;47.414;18.954;2023-02-03T18:21:37;3.60;99.90
64685;DHT22;51109;47.414;18.954;2023-02-03T18:24:04;3.60;99.90
64685;DHT22;51109;47.414;18.954;2023-02-03T18:26:32;3.60;99.90
64685;DHT22;51109;47.414;18.954;2023-02-03T18:29:02;3.70;99.90
64685;DHT22;51109;47.414;18.954;2023-02-03T18:31:29;3.70;99.90